Česky Dansk Deutsch English Español Suomi Français Magyar Italiano Nederlands norsk Polski Português svenska Türkçe

 

Het Weer

Kasama (Zambia)

09:00, 16 November 2012 (GMT)

 
WE
 
Home            
Kasama Mbala Isoka Mpika Kawambwa Chitipa Mansa Mbeya Karonga Lundazi Mzimba Mzuzu Mfuwe Serenje Chipata Ndola Lubumbashi-Luano Petauke Nkhota Kota Lilongwe International Airport Songea Manono Kalemie

Om een weerknop op uw website of weblog te plaatsen, copieer onderstaande code en plak die in uw pagina. In het eerste vakje staat HTML-code, in het tweede vakje UBB-code.


Add to Google

Details

Wind speed:2 bf, 4 kn, 2.1 m/s, 4.6 miles/h, 7.4 km/h
Wind direction:E, 090°
Visibility:Greater than 10000 m, 10 km, 32800 ft, 6.2 miles
Clouds:CAVOC
Temperature:30°C, 86°F
Gefühlte Temperatur:29°C, 84°F
Dew-point:12°C, 54°F
Atmospheric pressure:1019 hPa, 764.3 mmHg, 30.09 inHg, 1.006 atm
Relative humidity:33.1 %
METAR:FLKS 160900Z 09004KT CAVOK 30/12 Q1019

Snelkoppelingen

Actuele weersinformatie van de hele wereld. Voeg locaties toe met het plus (+) symbool. Deze snelkoppelingen kunnen worden toegevoegd aan Google.

Lid van de Technetium groep

website free tracking
StatCounter NetStat W3C Validator

12-11-2019 10:08:37
astro.technetium.be money.technetium.be phote.technetium.be tafeltennistafel.technetium.be www.ligfiets.net